sensor_id;sensor_type;location;lat;lon;timestamp;P1;durP1;ratioP1;P2;durP2;ratioP2
49948;SDS011;35840;45.982;8.890;2023-01-15T00:01:45;12.65;;;8.23;;
49948;SDS011;35840;45.982;8.890;2023-01-15T00:04:12;13.07;;;8.45;;
49948;SDS011;35840;45.982;8.890;2023-01-15T00:06:40;12.43;;;7.40;;
49948;SDS011;35840;45.982;8.890;2023-01-15T00:09:09;15.18;;;8.52;;
49948;SDS011;35840;45.982;8.890;2023-01-15T00:11:40;13.80;;;9.00;;
49948;SDS011;35840;45.982;8.890;2023-01-15T00:14:07;19.02;;;9.95;;
49948;SDS011;35840;45.982;8.890;2023-01-15T00:16:34;14.93;;;8.50;;
49948;SDS011;35840;45.982;8.890;2023-01-15T00:19:01;14.00;;;8.77;;
49948;SDS011;35840;45.982;8.890;2023-01-15T00:21:30;14.57;;;8.15;;
49948;SDS011;35840;45.982;8.890;2023-01-15T00:23:57;13.90;;;8.43;;
49948;SDS011;35840;45.982;8.890;2023-01-15T00:26:42;11.85;;;7.80;;
49948;SDS011;35840;45.982;8.890;2023-01-15T00:31:56;13.00;;;7.55;;
49948;SDS011;35840;45.982;8.890;2023-01-15T00:34:28;11.63;;;7.15;;
49948;SDS011;35840;45.982;8.890;2023-01-15T00:36:56;13.07;;;7.38;;
49948;SDS011;35840;45.982;8.890;2023-01-15T00:39:23;15.23;;;7.57;;
49948;SDS011;35840;45.982;8.890;2023-01-15T00:41:50;13.60;;;7.95;;
49948;SDS011;35840;45.982;8.890;2023-01-15T00:44:18;11.70;;;7.43;;
49948;SDS011;35840;45.982;8.890;2023-01-15T00:46:45;12.13;;;7.70;;
49948;SDS011;35840;45.982;8.890;2023-01-15T00:49:13;14.82;;;7.63;;
49948;SDS011;35840;45.982;8.890;2023-01-15T00:51:40;14.25;;;7.05;;
49948;SDS011;35840;45.982;8.890;2023-01-15T00:54:07;16.50;;;7.93;;
49948;SDS011;35840;45.982;8.890;2023-01-15T00:56:34;14.48;;;7.95;;
49948;SDS011;35840;45.982;8.890;2023-01-15T00:59:02;14.48;;;8.55;;
49948;SDS011;35840;45.982;8.890;2023-01-15T01:01:30;14.10;;;7.78;;
49948;SDS011;35840;45.982;8.890;2023-01-15T01:03:57;19.48;;;9.85;;
49948;SDS011;35840;45.982;8.890;2023-01-15T01:06:24;17.08;;;9.88;;
49948;SDS011;35840;45.982;8.890;2023-01-15T01:08:51;17.58;;;10.63;;
49948;SDS011;35840;45.982;8.890;2023-01-15T01:11:19;17.55;;;9.13;;
49948;SDS011;35840;45.982;8.890;2023-01-15T01:13:50;18.73;;;9.65;;
49948;SDS011;35840;45.982;8.890;2023-01-15T01:18:48;19.48;;;8.95;;
49948;SDS011;35840;45.982;8.890;2023-01-15T01:21:16;24.90;;;9.90;;
49948;SDS011;35840;45.982;8.890;2023-01-15T01:23:43;19.60;;;9.57;;
49948;SDS011;35840;45.982;8.890;2023-01-15T01:26:10;19.55;;;9.38;;
49948;SDS011;35840;45.982;8.890;2023-01-15T01:28:37;18.00;;;10.05;;
49948;SDS011;35840;45.982;8.890;2023-01-15T01:31:05;18.13;;;9.50;;
49948;SDS011;35840;45.982;8.890;2023-01-15T01:33:33;22.13;;;10.80;;
49948;SDS011;35840;45.982;8.890;2023-01-15T01:36:00;19.33;;;11.15;;
49948;SDS011;35840;45.982;8.890;2023-01-15T01:38:27;21.10;;;12.23;;
49948;SDS011;35840;45.982;8.890;2023-01-15T01:40:54;21.65;;;11.85;;
49948;SDS011;35840;45.982;8.890;2023-01-15T01:43:22;23.50;;;12.43;;
49948;SDS011;35840;45.982;8.890;2023-01-15T01:45:51;22.98;;;11.45;;
49948;SDS011;35840;45.982;8.890;2023-01-15T01:48:19;14.32;;;9.98;;
49948;SDS011;35840;45.982;8.890;2023-01-15T01:50:50;16.33;;;9.75;;
49948;SDS011;35840;45.982;8.890;2023-01-15T01:53:21;17.60;;;8.35;;
49948;SDS011;35840;45.982;8.890;2023-01-15T01:55:54;16.40;;;8.32;;
49948;SDS011;35840;45.982;8.890;2023-01-15T01:58:23;12.57;;;8.25;;
49948;SDS011;35840;45.982;8.890;2023-01-15T02:00:52;14.60;;;7.93;;
49948;SDS011;35840;45.982;8.890;2023-01-15T02:03:20;15.40;;;8.05;;
49948;SDS011;35840;45.982;8.890;2023-01-15T02:05:53;13.77;;;7.80;;
49948;SDS011;35840;45.982;8.890;2023-01-15T02:08:23;12.55;;;6.20;;
49948;SDS011;35840;45.982;8.890;2023-01-15T02:10:54;13.25;;;6.63;;
49948;SDS011;35840;45.982;8.890;2023-01-15T02:16:25;13.80;;;7.70;;
49948;SDS011;35840;45.982;8.890;2023-01-15T02:18:59;14.20;;;7.15;;
49948;SDS011;35840;45.982;8.890;2023-01-15T02:24:05;11.05;;;6.80;;
49948;SDS011;35840;45.982;8.890;2023-01-15T02:29:12;16.00;;;6.82;;
49948;SDS011;35840;45.982;8.890;2023-01-15T02:31:47;15.02;;;6.80;;
49948;SDS011;35840;45.982;8.890;2023-01-15T02:34:28;8.55;;;5.97;;
49948;SDS011;35840;45.982;8.890;2023-01-15T02:37:05;12.40;;;7.32;;
49948;SDS011;35840;45.982;8.890;2023-01-15T02:39:36;8.65;;;5.90;;
49948;SDS011;35840;45.982;8.890;2023-01-15T02:42:08;15.05;;;7.88;;
49948;SDS011;35840;45.982;8.890;2023-01-15T02:44:44;17.17;;;7.32;;
49948;SDS011;35840;45.982;8.890;2023-01-15T02:47:16;11.05;;;6.00;;
49948;SDS011;35840;45.982;8.890;2023-01-15T02:49:48;9.13;;;5.25;;
49948;SDS011;35840;45.982;8.890;2023-01-15T02:52:25;9.23;;;5.53;;
49948;SDS011;35840;45.982;8.890;2023-01-15T02:54:57;8.80;;;5.80;;
49948;SDS011;35840;45.982;8.890;2023-01-15T02:57:39;10.18;;;4.90;;
49948;SDS011;35840;45.982;8.890;2023-01-15T03:00:10;8.98;;;5.50;;
49948;SDS011;35840;45.982;8.890;2023-01-15T03:02:42;10.43;;;5.60;;
49948;SDS011;35840;45.982;8.890;2023-01-15T03:05:17;11.30;;;5.97;;
49948;SDS011;35840;45.982;8.890;2023-01-15T03:07:51;12.52;;;6.05;;
49948;SDS011;35840;45.982;8.890;2023-01-15T03:10:41;8.90;;;5.40;;
49948;SDS011;35840;45.982;8.890;2023-01-15T03:13:19;9.88;;;6.18;;
49948;SDS011;35840;45.982;8.890;2023-01-15T03:15:59;12.35;;;5.90;;
49948;SDS011;35840;45.982;8.890;2023-01-15T03:24:48;9.20;;;5.78;;
49948;SDS011;35840;45.982;8.890;2023-01-15T03:27:19;7.75;;;4.72;;
49948;SDS011;35840;45.982;8.890;2023-01-15T03:30:04;11.50;;;6.20;;
49948;SDS011;35840;45.982;8.890;2023-01-15T03:32:35;10.50;;;5.68;;
49948;SDS011;35840;45.982;8.890;2023-01-15T03:35:04;8.98;;;5.72;;
49948;SDS011;35840;45.982;8.890;2023-01-15T03:37:41;11.52;;;5.05;;
49948;SDS011;35840;45.982;8.890;2023-01-15T03:40:08;9.43;;;5.55;;
49948;SDS011;35840;45.982;8.890;2023-01-15T03:43:11;9.95;;;5.55;;
49948;SDS011;35840;45.982;8.890;2023-01-15T03:45:55;6.28;;;4.63;;
49948;SDS011;35840;45.982;8.890;2023-01-15T03:48:30;8.10;;;4.68;;
49948;SDS011;35840;45.982;8.890;2023-01-15T03:51:11;7.10;;;5.45;;
49948;SDS011;35840;45.982;8.890;2023-01-15T03:53:48;7.20;;;4.90;;
49948;SDS011;35840;45.982;8.890;2023-01-15T03:59:23;7.53;;;4.70;;
49948;SDS011;35840;45.982;8.890;2023-01-15T04:02:00;7.63;;;4.80;;
49948;SDS011;35840;45.982;8.890;2023-01-15T04:04:31;7.53;;;4.53;;
49948;SDS011;35840;45.982;8.890;2023-01-15T04:07:01;7.78;;;5.10;;
49948;SDS011;35840;45.982;8.890;2023-01-15T04:09:31;7.45;;;5.20;;
49948;SDS011;35840;45.982;8.890;2023-01-15T04:12:05;7.65;;;4.93;;
49948;SDS011;35840;45.982;8.890;2023-01-15T04:14:37;10.23;;;5.43;;
49948;SDS011;35840;45.982;8.890;2023-01-15T04:17:07;6.78;;;4.05;;
49948;SDS011;35840;45.982;8.890;2023-01-15T04:19:33;8.45;;;4.63;;
49948;SDS011;35840;45.982;8.890;2023-01-15T04:22:07;8.90;;;4.13;;
49948;SDS011;35840;45.982;8.890;2023-01-15T04:24:35;5.45;;;3.95;;
49948;SDS011;35840;45.982;8.890;2023-01-15T04:27:03;6.88;;;4.22;;
49948;SDS011;35840;45.982;8.890;2023-01-15T04:29:30;7.45;;;4.75;;
49948;SDS011;35840;45.982;8.890;2023-01-15T04:31:56;5.47;;;3.78;;
49948;SDS011;35840;45.982;8.890;2023-01-15T04:34:26;5.65;;;3.30;;
49948;SDS011;35840;45.982;8.890;2023-01-15T04:36:54;6.15;;;4.35;;
49948;SDS011;35840;45.982;8.890;2023-01-15T04:39:22;7.38;;;4.55;;
49948;SDS011;35840;45.982;8.890;2023-01-15T04:41:49;6.05;;;4.25;;
49948;SDS011;35840;45.982;8.890;2023-01-15T04:44:34;6.68;;;3.97;;
49948;SDS011;35840;45.982;8.890;2023-01-15T04:47:02;4.65;;;3.30;;
49948;SDS011;35840;45.982;8.890;2023-01-15T04:49:29;6.22;;;3.67;;
49948;SDS011;35840;45.982;8.890;2023-01-15T04:51:56;5.40;;;4.13;;
49948;SDS011;35840;45.982;8.890;2023-01-15T04:54:22;7.25;;;4.07;;
49948;SDS011;35840;45.982;8.890;2023-01-15T04:56:50;7.38;;;4.95;;
49948;SDS011;35840;45.982;8.890;2023-01-15T04:59:20;6.82;;;4.65;;
49948;SDS011;35840;45.982;8.890;2023-01-15T05:01:49;6.07;;;4.05;;
49948;SDS011;35840;45.982;8.890;2023-01-15T05:04:30;7.07;;;4.15;;
49948;SDS011;35840;45.982;8.890;2023-01-15T05:06:59;5.93;;;4.30;;
49948;SDS011;35840;45.982;8.890;2023-01-15T05:09:26;7.95;;;4.53;;
49948;SDS011;35840;45.982;8.890;2023-01-15T05:11:53;10.60;;;5.40;;
49948;SDS011;35840;45.982;8.890;2023-01-15T05:14:20;8.40;;;5.03;;
49948;SDS011;35840;45.982;8.890;2023-01-15T05:16:47;7.00;;;4.63;;
49948;SDS011;35840;45.982;8.890;2023-01-15T05:19:13;6.10;;;4.43;;
49948;SDS011;35840;45.982;8.890;2023-01-15T05:21:40;8.52;;;4.25;;
49948;SDS011;35840;45.982;8.890;2023-01-15T05:24:09;8.68;;;4.95;;
49948;SDS011;35840;45.982;8.890;2023-01-15T05:26:39;5.97;;;4.22;;
49948;SDS011;35840;45.982;8.890;2023-01-15T05:29:07;9.10;;;5.32;;
49948;SDS011;35840;45.982;8.890;2023-01-15T05:31:35;7.00;;;4.45;;
49948;SDS011;35840;45.982;8.890;2023-01-15T05:34:01;6.57;;;4.53;;
49948;SDS011;35840;45.982;8.890;2023-01-15T05:36:29;7.10;;;4.35;;
49948;SDS011;35840;45.982;8.890;2023-01-15T05:38:57;10.25;;;6.20;;
49948;SDS011;35840;45.982;8.890;2023-01-15T05:41:27;8.23;;;4.63;;
49948;SDS011;35840;45.982;8.890;2023-01-15T05:44:13;7.38;;;4.13;;
49948;SDS011;35840;45.982;8.890;2023-01-15T05:46:49;6.47;;;4.57;;
49948;SDS011;35840;45.982;8.890;2023-01-15T05:49:18;6.57;;;4.47;;
49948;SDS011;35840;45.982;8.890;2023-01-15T05:51:47;7.15;;;4.97;;
49948;SDS011;35840;45.982;8.890;2023-01-15T05:54:16;6.07;;;4.32;;
49948;SDS011;35840;45.982;8.890;2023-01-15T05:56:45;7.20;;;4.40;;
49948;SDS011;35840;45.982;8.890;2023-01-15T05:59:13;5.70;;;4.32;;
49948;SDS011;35840;45.982;8.890;2023-01-15T06:01:44;4.97;;;3.78;;
49948;SDS011;35840;45.982;8.890;2023-01-15T06:04:12;7.18;;;4.55;;
49948;SDS011;35840;45.982;8.890;2023-01-15T06:06:46;9.27;;;5.53;;
49948;SDS011;35840;45.982;8.890;2023-01-15T06:09:14;6.88;;;4.32;;
49948;SDS011;35840;45.982;8.890;2023-01-15T06:11:41;6.05;;;3.78;;
49948;SDS011;35840;45.982;8.890;2023-01-15T06:14:09;4.93;;;3.70;;
49948;SDS011;35840;45.982;8.890;2023-01-15T06:16:37;5.80;;;3.72;;
49948;SDS011;35840;45.982;8.890;2023-01-15T06:19:06;5.53;;;3.83;;
49948;SDS011;35840;45.982;8.890;2023-01-15T06:21:35;5.82;;;3.55;;
49948;SDS011;35840;45.982;8.890;2023-01-15T06:24:02;6.47;;;4.20;;
49948;SDS011;35840;45.982;8.890;2023-01-15T06:26:29;6.10;;;3.88;;
49948;SDS011;35840;45.982;8.890;2023-01-15T06:28:56;5.22;;;4.03;;
49948;SDS011;35840;45.982;8.890;2023-01-15T06:31:23;4.85;;;3.08;;
49948;SDS011;35840;45.982;8.890;2023-01-15T06:33:52;4.72;;;3.58;;
49948;SDS011;35840;45.982;8.890;2023-01-15T06:36:20;7.35;;;3.53;;
49948;SDS011;35840;45.982;8.890;2023-01-15T06:38:48;6.90;;;4.25;;
49948;SDS011;35840;45.982;8.890;2023-01-15T06:41:17;5.25;;;3.78;;
49948;SDS011;35840;45.982;8.890;2023-01-15T06:44:04;8.07;;;3.72;;
49948;SDS011;35840;45.982;8.890;2023-01-15T06:49:35;5.00;;;3.55;;
49948;SDS011;35840;45.982;8.890;2023-01-15T06:52:02;4.18;;;3.10;;
49948;SDS011;35840;45.982;8.890;2023-01-15T06:54:29;4.88;;;3.20;;
49948;SDS011;35840;45.982;8.890;2023-01-15T06:56:56;5.78;;;3.15;;
49948;SDS011;35840;45.982;8.890;2023-01-15T06:59:23;12.40;;;3.60;;
49948;SDS011;35840;45.982;8.890;2023-01-15T07:01:50;6.03;;;2.90;;
49948;SDS011;35840;45.982;8.890;2023-01-15T07:04:17;6.07;;;3.58;;
49948;SDS011;35840;45.982;8.890;2023-01-15T07:06:43;5.28;;;3.42;;
49948;SDS011;35840;45.982;8.890;2023-01-15T07:09:10;5.43;;;3.80;;
49948;SDS011;35840;45.982;8.890;2023-01-15T07:11:38;7.57;;;3.97;;
49948;SDS011;35840;45.982;8.890;2023-01-15T07:14:33;6.20;;;3.95;;
49948;SDS011;35840;45.982;8.890;2023-01-15T07:16:59;8.10;;;3.80;;
49948;SDS011;35840;45.982;8.890;2023-01-15T07:19:26;7.78;;;4.95;;
49948;SDS011;35840;45.982;8.890;2023-01-15T07:21:53;5.55;;;3.92;;
49948;SDS011;35840;45.982;8.890;2023-01-15T07:24:20;5.95;;;4.18;;
49948;SDS011;35840;45.982;8.890;2023-01-15T07:26:47;7.00;;;4.32;;
49948;SDS011;35840;45.982;8.890;2023-01-15T07:29:13;5.90;;;4.57;;
49948;SDS011;35840;45.982;8.890;2023-01-15T07:31:41;7.57;;;4.40;;
49948;SDS011;35840;45.982;8.890;2023-01-15T07:34:08;12.00;;;5.75;;
49948;SDS011;35840;45.982;8.890;2023-01-15T07:36:35;5.80;;;3.97;;
49948;SDS011;35840;45.982;8.890;2023-01-15T07:39:06;7.20;;;5.10;;
49948;SDS011;35840;45.982;8.890;2023-01-15T07:41:34;8.50;;;4.70;;
49948;SDS011;35840;45.982;8.890;2023-01-15T07:50:22;6.25;;;4.47;;
49948;SDS011;35840;45.982;8.890;2023-01-15T07:52:50;5.78;;;4.20;;
49948;SDS011;35840;45.982;8.890;2023-01-15T07:55:19;8.23;;;5.63;;
49948;SDS011;35840;45.982;8.890;2023-01-15T07:57:46;9.13;;;5.80;;
49948;SDS011;35840;45.982;8.890;2023-01-15T08:00:14;6.95;;;5.15;;
49948;SDS011;35840;45.982;8.890;2023-01-15T08:02:44;7.88;;;4.78;;
49948;SDS011;35840;45.982;8.890;2023-01-15T08:05:15;6.32;;;4.43;;
49948;SDS011;35840;45.982;8.890;2023-01-15T08:07:42;7.72;;;4.53;;
49948;SDS011;35840;45.982;8.890;2023-01-15T08:10:24;9.38;;;5.32;;
49948;SDS011;35840;45.982;8.890;2023-01-15T08:13:05;8.90;;;4.95;;
49948;SDS011;35840;45.982;8.890;2023-01-15T08:15:50;7.50;;;4.75;;
49948;SDS011;35840;45.982;8.890;2023-01-15T08:18:17;9.15;;;4.40;;
49948;SDS011;35840;45.982;8.890;2023-01-15T08:20:43;6.28;;;4.57;;
49948;SDS011;35840;45.982;8.890;2023-01-15T08:23:12;7.13;;;4.10;;
49948;SDS011;35840;45.982;8.890;2023-01-15T08:25:39;8.63;;;5.15;;
49948;SDS011;35840;45.982;8.890;2023-01-15T08:28:06;8.35;;;4.95;;
49948;SDS011;35840;45.982;8.890;2023-01-15T08:30:32;6.18;;;4.60;;
49948;SDS011;35840;45.982;8.890;2023-01-15T08:32:59;7.07;;;4.60;;
49948;SDS011;35840;45.982;8.890;2023-01-15T08:35:28;7.55;;;4.72;;
49948;SDS011;35840;45.982;8.890;2023-01-15T08:37:55;9.25;;;4.50;;
49948;SDS011;35840;45.982;8.890;2023-01-15T08:40:22;6.65;;;4.18;;
49948;SDS011;35840;45.982;8.890;2023-01-15T08:42:49;7.63;;;4.47;;
49948;SDS011;35840;45.982;8.890;2023-01-15T08:45:16;8.65;;;4.50;;
49948;SDS011;35840;45.982;8.890;2023-01-15T08:47:43;6.85;;;4.10;;
49948;SDS011;35840;45.982;8.890;2023-01-15T08:50:09;7.60;;;4.53;;
49948;SDS011;35840;45.982;8.890;2023-01-15T08:52:36;7.05;;;4.82;;
49948;SDS011;35840;45.982;8.890;2023-01-15T08:55:04;5.82;;;4.15;;
49948;SDS011;35840;45.982;8.890;2023-01-15T08:57:31;8.02;;;4.85;;
49948;SDS011;35840;45.982;8.890;2023-01-15T08:59:58;7.55;;;4.25;;
49948;SDS011;35840;45.982;8.890;2023-01-15T09:02:25;7.72;;;4.57;;
49948;SDS011;35840;45.982;8.890;2023-01-15T09:04:53;6.68;;;4.10;;
49948;SDS011;35840;45.982;8.890;2023-01-15T09:07:19;7.13;;;4.93;;
49948;SDS011;35840;45.982;8.890;2023-01-15T09:09:46;8.35;;;4.65;;
49948;SDS011;35840;45.982;8.890;2023-01-15T09:12:13;8.48;;;4.90;;
49948;SDS011;35840;45.982;8.890;2023-01-15T09:14:40;8.82;;;4.95;;
49948;SDS011;35840;45.982;8.890;2023-01-15T09:17:27;7.47;;;4.93;;
49948;SDS011;35840;45.982;8.890;2023-01-15T09:19:54;9.98;;;6.10;;
49948;SDS011;35840;45.982;8.890;2023-01-15T09:22:21;11.00;;;6.50;;
49948;SDS011;35840;45.982;8.890;2023-01-15T09:24:48;9.30;;;6.00;;
49948;SDS011;35840;45.982;8.890;2023-01-15T09:27:14;8.90;;;5.82;;
49948;SDS011;35840;45.982;8.890;2023-01-15T09:29:41;9.38;;;5.60;;
49948;SDS011;35840;45.982;8.890;2023-01-15T09:32:08;7.38;;;5.90;;
49948;SDS011;35840;45.982;8.890;2023-01-15T09:34:35;7.82;;;5.28;;
49948;SDS011;35840;45.982;8.890;2023-01-15T09:37:02;10.43;;;6.10;;
49948;SDS011;35840;45.982;8.890;2023-01-15T09:39:29;15.00;;;8.75;;
49948;SDS011;35840;45.982;8.890;2023-01-15T09:42:05;17.65;;;9.30;;
49948;SDS011;35840;45.982;8.890;2023-01-15T09:47:43;10.15;;;6.15;;
49948;SDS011;35840;45.982;8.890;2023-01-15T09:55:41;10.95;;;6.00;;
49948;SDS011;35840;45.982;8.890;2023-01-15T10:00:42;8.02;;;5.28;;
49948;SDS011;35840;45.982;8.890;2023-01-15T10:05:49;8.02;;;5.00;;
49948;SDS011;35840;45.982;8.890;2023-01-15T10:08:28;8.13;;;5.10;;
49948;SDS011;35840;45.982;8.890;2023-01-15T10:11:02;7.65;;;4.85;;
49948;SDS011;35840;45.982;8.890;2023-01-15T10:16:26;9.95;;;5.38;;
49948;SDS011;35840;45.982;8.890;2023-01-15T10:18:56;24.20;;;13.57;;
49948;SDS011;35840;45.982;8.890;2023-01-15T10:43:10;7.88;;;5.25;;
49948;SDS011;35840;45.982;8.890;2023-01-15T10:45:51;8.48;;;5.43;;
49948;SDS011;35840;45.982;8.890;2023-01-15T10:48:41;8.85;;;4.90;;
49948;SDS011;35840;45.982;8.890;2023-01-15T10:51:12;8.75;;;5.18;;
49948;SDS011;35840;45.982;8.890;2023-01-15T10:56:36;8.27;;;5.78;;
49948;SDS011;35840;45.982;8.890;2023-01-15T11:01:56;10.98;;;6.10;;
49948;SDS011;35840;45.982;8.890;2023-01-15T11:04:25;15.25;;;8.80;;
49948;SDS011;35840;45.982;8.890;2023-01-15T11:06:56;13.13;;;9.15;;
49948;SDS011;35840;45.982;8.890;2023-01-15T11:09:26;11.48;;;7.22;;
49948;SDS011;35840;45.982;8.890;2023-01-15T11:12:24;10.93;;;4.93;;
49948;SDS011;35840;45.982;8.890;2023-01-15T11:14:53;10.68;;;5.65;;
49948;SDS011;35840;45.982;8.890;2023-01-15T11:17:44;7.97;;;5.32;;
49948;SDS011;35840;45.982;8.890;2023-01-15T11:20:31;10.25;;;6.28;;
49948;SDS011;35840;45.982;8.890;2023-01-15T11:23:11;10.85;;;6.38;;
49948;SDS011;35840;45.982;8.890;2023-01-15T11:25:47;8.98;;;5.93;;
49948;SDS011;35840;45.982;8.890;2023-01-15T11:28:16;11.68;;;6.68;;
49948;SDS011;35840;45.982;8.890;2023-01-15T11:30:52;12.15;;;7.30;;
49948;SDS011;35840;45.982;8.890;2023-01-15T11:33:22;11.00;;;6.85;;
49948;SDS011;35840;45.982;8.890;2023-01-15T11:35:51;12.50;;;7.43;;
49948;SDS011;35840;45.982;8.890;2023-01-15T11:38:24;10.75;;;6.53;;
49948;SDS011;35840;45.982;8.890;2023-01-15T11:40:53;8.90;;;6.88;;
49948;SDS011;35840;45.982;8.890;2023-01-15T11:43:22;14.95;;;9.35;;
49948;SDS011;35840;45.982;8.890;2023-01-15T11:46:21;20.75;;;10.52;;
49948;SDS011;35840;45.982;8.890;2023-01-15T11:49:09;13.48;;;8.05;;
49948;SDS011;35840;45.982;8.890;2023-01-15T11:51:55;10.73;;;6.38;;
49948;SDS011;35840;45.982;8.890;2023-01-15T11:54:24;12.40;;;7.32;;
49948;SDS011;35840;45.982;8.890;2023-01-15T11:56:51;12.55;;;6.82;;
49948;SDS011;35840;45.982;8.890;2023-01-15T11:59:20;9.27;;;6.43;;
49948;SDS011;35840;45.982;8.890;2023-01-15T12:02:00;7.75;;;5.70;;
49948;SDS011;35840;45.982;8.890;2023-01-15T12:04:37;9.75;;;5.78;;
49948;SDS011;35840;45.982;8.890;2023-01-15T12:07:11;12.90;;;8.38;;
49948;SDS011;35840;45.982;8.890;2023-01-15T12:12:31;11.07;;;6.75;;
49948;SDS011;35840;45.982;8.890;2023-01-15T12:28:22;11.57;;;6.30;;
49948;SDS011;35840;45.982;8.890;2023-01-15T12:31:03;11.32;;;6.43;;
49948;SDS011;35840;45.982;8.890;2023-01-15T12:33:45;11.02;;;6.55;;
49948;SDS011;35840;45.982;8.890;2023-01-15T12:36:15;8.75;;;5.88;;
49948;SDS011;35840;45.982;8.890;2023-01-15T12:38:54;7.40;;;5.82;;
49948;SDS011;35840;45.982;8.890;2023-01-15T12:44:20;9.40;;;6.35;;
49948;SDS011;35840;45.982;8.890;2023-01-15T12:49:47;10.70;;;5.90;;
49948;SDS011;35840;45.982;8.890;2023-01-15T12:52:23;9.13;;;5.63;;
49948;SDS011;35840;45.982;8.890;2023-01-15T12:55:02;10.07;;;6.50;;
49948;SDS011;35840;45.982;8.890;2023-01-15T12:57:39;10.07;;;6.53;;
49948;SDS011;35840;45.982;8.890;2023-01-15T13:00:14;10.32;;;6.10;;
49948;SDS011;35840;45.982;8.890;2023-01-15T13:02:57;14.52;;;7.70;;
49948;SDS011;35840;45.982;8.890;2023-01-15T13:05:56;11.32;;;6.75;;
49948;SDS011;35840;45.982;8.890;2023-01-15T13:11:04;8.15;;;6.13;;
49948;SDS011;35840;45.982;8.890;2023-01-15T13:13:34;10.77;;;6.13;;
49948;SDS011;35840;45.982;8.890;2023-01-15T13:21:56;9.98;;;6.50;;
49948;SDS011;35840;45.982;8.890;2023-01-15T13:32:17;9.90;;;5.85;;
49948;SDS011;35840;45.982;8.890;2023-01-15T13:34:56;11.40;;;7.25;;
49948;SDS011;35840;45.982;8.890;2023-01-15T13:37:31;10.30;;;7.43;;
49948;SDS011;35840;45.982;8.890;2023-01-15T13:42:58;9.95;;;6.35;;
49948;SDS011;35840;45.982;8.890;2023-01-15T13:45:33;10.63;;;6.53;;
49948;SDS011;35840;45.982;8.890;2023-01-15T13:48:19;8.98;;;6.38;;
49948;SDS011;35840;45.982;8.890;2023-01-15T13:50:57;12.25;;;7.28;;
49948;SDS011;35840;45.982;8.890;2023-01-15T13:53:30;11.45;;;7.35;;
49948;SDS011;35840;45.982;8.890;2023-01-15T13:56:06;11.25;;;6.85;;
49948;SDS011;35840;45.982;8.890;2023-01-15T13:58:39;11.23;;;7.32;;
49948;SDS011;35840;45.982;8.890;2023-01-15T14:06:20;14.15;;;8.13;;
49948;SDS011;35840;45.982;8.890;2023-01-15T14:08:46;14.02;;;9.25;;
49948;SDS011;35840;45.982;8.890;2023-01-15T14:17:28;17.20;;;11.35;;
49948;SDS011;35840;45.982;8.890;2023-01-15T14:39:06;14.18;;;8.60;;
49948;SDS011;35840;45.982;8.890;2023-01-15T14:41:53;12.35;;;8.35;;
49948;SDS011;35840;45.982;8.890;2023-01-15T14:44:54;12.80;;;7.88;;
49948;SDS011;35840;45.982;8.890;2023-01-15T14:50:01;12.18;;;7.93;;
49948;SDS011;35840;45.982;8.890;2023-01-15T14:52:50;14.20;;;9.50;;
49948;SDS011;35840;45.982;8.890;2023-01-15T14:55:19;14.00;;;9.23;;
49948;SDS011;35840;45.982;8.890;2023-01-15T14:57:50;16.65;;;9.25;;
49948;SDS011;35840;45.982;8.890;2023-01-15T15:00:34;14.73;;;8.55;;
49948;SDS011;35840;45.982;8.890;2023-01-15T15:03:18;12.45;;;8.48;;
49948;SDS011;35840;45.982;8.890;2023-01-15T15:05:48;11.88;;;8.93;;
49948;SDS011;35840;45.982;8.890;2023-01-15T15:08:17;11.82;;;8.30;;
49948;SDS011;35840;45.982;8.890;2023-01-15T15:10:45;12.68;;;8.35;;
49948;SDS011;35840;45.982;8.890;2023-01-15T15:16:10;17.45;;;9.55;;
49948;SDS011;35840;45.982;8.890;2023-01-15T15:18:46;18.73;;;10.35;;
49948;SDS011;35840;45.982;8.890;2023-01-15T15:21:25;15.23;;;9.35;;
49948;SDS011;35840;45.982;8.890;2023-01-15T15:24:00;15.75;;;9.88;;
49948;SDS011;35840;45.982;8.890;2023-01-15T15:26:38;20.92;;;11.30;;
49948;SDS011;35840;45.982;8.890;2023-01-15T15:31:35;16.52;;;9.50;;
49948;SDS011;35840;45.982;8.890;2023-01-15T15:34:06;12.60;;;8.82;;
49948;SDS011;35840;45.982;8.890;2023-01-15T15:36:39;16.30;;;10.32;;
49948;SDS011;35840;45.982;8.890;2023-01-15T15:39:19;20.30;;;11.65;;
49948;SDS011;35840;45.982;8.890;2023-01-15T15:41:51;15.30;;;11.00;;
49948;SDS011;35840;45.982;8.890;2023-01-15T15:44:45;17.70;;;11.32;;
49948;SDS011;35840;45.982;8.890;2023-01-15T15:47:37;18.67;;;11.43;;
49948;SDS011;35840;45.982;8.890;2023-01-15T15:50:28;18.27;;;11.05;;
49948;SDS011;35840;45.982;8.890;2023-01-15T15:52:57;17.90;;;10.48;;
49948;SDS011;35840;45.982;8.890;2023-01-15T15:55:36;18.50;;;10.55;;
49948;SDS011;35840;45.982;8.890;2023-01-15T15:58:05;20.27;;;12.45;;
49948;SDS011;35840;45.982;8.890;2023-01-15T16:00:39;17.27;;;10.48;;
49948;SDS011;35840;45.982;8.890;2023-01-15T16:03:14;26.55;;;14.55;;
49948;SDS011;35840;45.982;8.890;2023-01-15T16:05:53;40.17;;;22.75;;
49948;SDS011;35840;45.982;8.890;2023-01-15T16:08:25;28.17;;;15.07;;
49948;SDS011;35840;45.982;8.890;2023-01-15T16:10:54;25.48;;;15.18;;
49948;SDS011;35840;45.982;8.890;2023-01-15T16:13:45;23.08;;;14.55;;
49948;SDS011;35840;45.982;8.890;2023-01-15T16:16:12;21.17;;;13.45;;
49948;SDS011;35840;45.982;8.890;2023-01-15T16:18:47;25.05;;;15.27;;
49948;SDS011;35840;45.982;8.890;2023-01-15T16:21:17;25.52;;;16.17;;
49948;SDS011;35840;45.982;8.890;2023-01-15T16:23:56;45.97;;;21.65;;
49948;SDS011;35840;45.982;8.890;2023-01-15T16:29:20;24.00;;;14.05;;
49948;SDS011;35840;45.982;8.890;2023-01-15T16:31:50;22.20;;;12.75;;
49948;SDS011;35840;45.982;8.890;2023-01-15T16:34:18;21.70;;;13.60;;
49948;SDS011;35840;45.982;8.890;2023-01-15T16:36:47;23.73;;;15.93;;
49948;SDS011;35840;45.982;8.890;2023-01-15T16:41:57;25.60;;;15.93;;
49948;SDS011;35840;45.982;8.890;2023-01-15T16:47:23;23.73;;;12.70;;
49948;SDS011;35840;45.982;8.890;2023-01-15T16:49:51;25.08;;;14.50;;
49948;SDS011;35840;45.982;8.890;2023-01-15T17:00:42;22.90;;;14.68;;
49948;SDS011;35840;45.982;8.890;2023-01-15T17:03:19;24.00;;;14.68;;
49948;SDS011;35840;45.982;8.890;2023-01-15T17:05:48;25.52;;;14.40;;
49948;SDS011;35840;45.982;8.890;2023-01-15T17:08:31;23.58;;;13.65;;
49948;SDS011;35840;45.982;8.890;2023-01-15T17:11:02;23.95;;;13.85;;
49948;SDS011;35840;45.982;8.890;2023-01-15T17:13:35;26.80;;;14.98;;
49948;SDS011;35840;45.982;8.890;2023-01-15T17:16:17;28.75;;;15.00;;
49948;SDS011;35840;45.982;8.890;2023-01-15T17:18:46;37.33;;;20.50;;
49948;SDS011;35840;45.982;8.890;2023-01-15T17:21:21;31.63;;;18.98;;
49948;SDS011;35840;45.982;8.890;2023-01-15T17:23:55;32.13;;;17.92;;
49948;SDS011;35840;45.982;8.890;2023-01-15T17:26:25;27.15;;;17.08;;
49948;SDS011;35840;45.982;8.890;2023-01-15T17:28:55;27.42;;;15.75;;
49948;SDS011;35840;45.982;8.890;2023-01-15T17:31:25;25.90;;;16.65;;
49948;SDS011;35840;45.982;8.890;2023-01-15T17:33:56;27.63;;;16.88;;
49948;SDS011;35840;45.982;8.890;2023-01-15T17:36:25;30.83;;;18.15;;
49948;SDS011;35840;45.982;8.890;2023-01-15T17:38:53;26.63;;;16.05;;
49948;SDS011;35840;45.982;8.890;2023-01-15T17:41:20;27.88;;;16.42;;
49948;SDS011;35840;45.982;8.890;2023-01-15T17:43:48;26.85;;;14.30;;
49948;SDS011;35840;45.982;8.890;2023-01-15T17:46:15;23.10;;;14.30;;
49948;SDS011;35840;45.982;8.890;2023-01-15T17:48:42;23.02;;;14.63;;
49948;SDS011;35840;45.982;8.890;2023-01-15T17:51:11;22.55;;;15.02;;
49948;SDS011;35840;45.982;8.890;2023-01-15T17:53:40;25.58;;;15.60;;
49948;SDS011;35840;45.982;8.890;2023-01-15T17:56:07;24.33;;;14.05;;
49948;SDS011;35840;45.982;8.890;2023-01-15T17:58:53;28.40;;;14.80;;